KSTL/STL METAR and TAF weather

Enter ICAO airport designator
Station Type Date Time Source
KSTL METAR 2017/10/19 06:51 UTC NOAA

KSTL 190651Z 17004KT 10SM CLR 14/09 A3013 RMK AO2 SLP197 T01440094


Station Type Date Time Source
KSTL Decoded METAR 2017/10/19 06:51 UTC NOAA

LAMBERT-ST LOUIS INTERNATIONAL AIRPORT , MO, United States (KSTL) 38-45N 90-22W 171M
Oct 19, 2017 - 02:51 AM EDT / 2017.10.19 0651 UTC
Wind: from the S (170 degrees) at 5 MPH (4 KT):0
Visibility: 10 mile(s):0
Sky conditions: clear
Temperature: 57.9 F (14.4 C)
Dew Point: 48.9 F (9.4 C)
Relative Humidity: 71%
Pressure (altimeter): 30.13 in. Hg (1020 hPa)
ob: KSTL 190651Z 17004KT 10SM CLR 14/09 A3013 RMK AO2 SLP197 T01440094
cycle: 7

Station Type Date Time Source
KSTL TAF 2017/10/19 06:22 UTC NOAA

TAF KSTL 190520Z 1906/2012 18006KT P6SM SKC
FM191000 21005KT P6SM SKC


Example: see airport list